createdAt,value
2023-03-08T00:01:24.076Z,71.15
2023-03-08T00:03:56.308Z,71.50
2023-03-08T00:06:26.171Z,71.77
2023-03-08T00:08:56.830Z,72.28
2023-03-08T00:11:25.916Z,72.13
2023-03-08T00:13:56.554Z,72.54
2023-03-08T00:16:25.871Z,72.81
2023-03-08T00:18:54.803Z,71.94
2023-03-08T00:21:23.735Z,72.72
2023-03-08T00:23:54.445Z,71.82
2023-03-08T00:26:23.387Z,71.29
2023-03-08T00:28:53.122Z,71.95
2023-03-08T00:31:23.923Z,72.48
2023-03-08T00:33:55.795Z,72.69
2023-03-08T00:36:24.822Z,72.85
2023-03-08T00:38:53.582Z,72.44
2023-03-08T00:41:22.023Z,72.94
2023-03-08T00:43:50.661Z,72.67
2023-03-08T00:46:19.025Z,73.13
2023-03-08T00:48:48.962Z,72.91
2023-03-08T00:51:18.949Z,73.00
2023-03-08T00:53:48.526Z,72.54
2023-03-08T00:56:17.010Z,72.80
2023-03-08T00:58:45.376Z,73.18
2023-03-08T01:01:17.093Z,72.48
2023-03-08T01:03:48.977Z,72.43
2023-03-08T01:06:17.559Z,71.80
2023-03-08T01:08:46.833Z,71.62
2023-03-08T01:11:20.123Z,71.20
2023-03-08T01:13:49.549Z,72.33
2023-03-08T01:16:19.528Z,72.27
2023-03-08T01:18:50.037Z,72.32
2023-03-08T01:21:19.135Z,71.92
2023-03-08T01:23:47.687Z,72.34
2023-03-08T01:26:17.796Z,71.79
2023-03-08T01:28:46.347Z,71.96
2023-03-08T01:31:16.786Z,72.13
2023-03-08T01:33:46.473Z,72.71
2023-03-08T01:36:20.458Z,72.60
2023-03-08T01:38:49.223Z,72.77
2023-03-08T01:41:21.282Z,72.72
2023-03-08T01:43:50.488Z,72.23
2023-03-08T01:46:24.951Z,73.11
2023-03-08T01:49:12.949Z,73.68
2023-03-08T01:51:45.967Z,73.56
2023-03-08T01:54:17.578Z,73.70
2023-03-08T01:56:48.641Z,73.18
2023-03-08T01:59:17.496Z,73.66
2023-03-08T02:01:46.696Z,74.12
2023-03-08T02:04:15.367Z,74.12
2023-03-08T02:06:46.947Z,74.13
2023-03-08T02:09:20.724Z,73.78
2023-03-08T02:11:50.561Z,74.30
2023-03-08T02:14:19.024Z,73.88
2023-03-08T02:16:50.945Z,75.07
2023-03-08T02:19:26.668Z,74.05
2023-03-08T02:21:57.451Z,74.39
2023-03-08T02:24:27.621Z,73.52
2023-03-08T02:27:01.813Z,74.58
2023-03-08T02:29:30.293Z,73.50
2023-03-08T02:31:58.668Z,73.85
2023-03-08T02:34:28.156Z,73.74
2023-03-08T02:36:56.602Z,73.97
2023-03-08T02:39:26.484Z,73.61
2023-03-08T02:41:56.807Z,74.01
2023-03-08T02:44:25.476Z,73.47
2023-03-08T02:46:55.784Z,73.66
2023-03-08T02:49:24.347Z,73.32
2023-03-08T02:51:53.562Z,73.45
2023-03-08T02:54:22.703Z,73.97
2023-03-08T02:56:52.530Z,74.08
2023-03-08T02:59:23.564Z,74.12
2023-03-08T03:01:53.415Z,74.37
2023-03-08T03:04:22.997Z,74.48
2023-03-08T03:06:51.778Z,74.78
2023-03-08T03:09:20.221Z,74.40
2023-03-08T03:11:48.653Z,74.67
2023-03-08T03:14:18.567Z,74.50
2023-03-08T03:16:47.683Z,74.52
2023-03-08T03:19:16.063Z,75.06
2023-03-08T03:21:44.456Z,74.31
2023-03-08T03:24:12.851Z,74.77
2023-03-08T03:26:47.039Z,74.59
2023-03-08T03:29:15.536Z,75.02
2023-03-08T03:31:48.713Z,75.43
2023-03-08T03:34:18.729Z,76.26
2023-03-08T03:36:49.193Z,76.00
2023-03-08T03:39:17.732Z,75.76
2023-03-08T03:41:47.063Z,75.08
2023-03-08T03:44:16.138Z,75.54
2023-03-08T03:46:48.363Z,75.44
2023-03-08T03:49:20.648Z,75.54
2023-03-08T03:51:49.170Z,75.27
2023-03-08T03:54:28.207Z,75.53
2023-03-08T03:57:00.504Z,74.93
2023-03-08T03:59:34.116Z,75.35
2023-03-08T04:02:05.290Z,75.28
2023-03-08T04:04:38.959Z,74.57
2023-03-08T04:07:07.734Z,74.38
2023-03-08T04:09:41.140Z,74.87
2023-03-08T04:12:14.613Z,74.50
2023-03-08T04:14:43.047Z,75.21
2023-03-08T04:17:15.579Z,75.43
2023-03-08T04:19:51.289Z,75.25
2023-03-08T04:22:21.170Z,75.39
2023-03-08T04:25:03.158Z,75.25
2023-03-08T04:27:41.119Z,75.51
2023-03-08T04:30:10.721Z,75.70
2023-03-08T04:32:40.542Z,76.05
2023-03-08T04:35:10.013Z,75.35
2023-03-08T04:37:40.945Z,76.06
2023-03-08T04:40:15.080Z,75.30
2023-03-08T04:42:55.620Z,76.02
2023-03-08T04:45:30.397Z,76.01
2023-03-08T04:48:02.825Z,75.83
2023-03-08T04:50:32.993Z,75.79
2023-03-08T04:53:01.482Z,76.17
2023-03-08T04:55:30.357Z,76.11
2023-03-08T04:57:59.111Z,75.93
2023-03-08T05:00:30.274Z,76.30
2023-03-08T05:03:00.267Z,75.64
2023-03-08T05:05:30.215Z,75.60
2023-03-08T05:07:59.964Z,76.07
2023-03-08T05:10:28.660Z,76.18
2023-03-08T05:12:57.434Z,75.93
2023-03-08T05:15:26.246Z,75.58
2023-03-08T05:17:54.578Z,76.50
2023-03-08T05:20:23.257Z,76.74
2023-03-08T05:22:58.927Z,76.09
2023-03-08T05:25:35.803Z,76.67
2023-03-08T05:28:04.535Z,76.29
2023-03-08T05:30:32.923Z,76.92
2023-03-08T05:33:01.363Z,76.64
2023-03-08T05:35:29.867Z,76.47
2023-03-08T05:37:59.769Z,76.61
2023-03-08T05:40:28.528Z,76.43
2023-03-08T05:42:58.089Z,76.45
2023-03-08T05:45:27.977Z,76.86
2023-03-08T05:47:57.786Z,77.08
2023-03-08T05:50:26.287Z,77.14
2023-03-08T05:52:55.330Z,76.55
2023-03-08T05:55:29.465Z,76.93
2023-03-08T05:57:59.597Z,76.78
2023-03-08T06:00:29.058Z,76.37
2023-03-08T06:03:04.025Z,76.27
2023-03-08T06:05:35.801Z,76.02
2023-03-08T06:08:04.633Z,76.19
2023-03-08T06:10:34.574Z,75.99
2023-03-08T06:13:03.625Z,76.64
2023-03-08T06:15:31.964Z,76.63
2023-03-08T06:18:00.363Z,76.68
2023-03-08T06:20:29.668Z,76.87
2023-03-08T06:22:59.040Z,76.41
2023-03-08T06:25:27.621Z,76.94
2023-03-08T06:27:57.941Z,76.34
2023-03-08T06:30:35.909Z,76.51
2023-03-08T06:33:06.100Z,76.88
2023-03-08T06:35:34.601Z,76.88
2023-03-08T06:38:04.471Z,77.39
2023-03-08T06:40:34.022Z,77.27
2023-03-08T06:43:03.907Z,77.10
2023-03-08T06:45:35.064Z,77.11
2023-03-08T06:48:03.548Z,77.75
2023-03-08T06:50:32.130Z,77.67
2023-03-08T06:53:00.854Z,77.34
2023-03-08T06:55:54.992Z,77.62
2023-03-08T06:58:24.815Z,77.03
2023-03-08T07:00:53.243Z,77.35
2023-03-08T07:03:21.726Z,77.66
2023-03-08T07:05:50.144Z,77.66
2023-03-08T07:08:18.623Z,77.83
2023-03-08T07:10:47.043Z,78.08
2023-03-08T07:13:15.508Z,77.99
2023-03-08T07:15:45.300Z,78.01
2023-03-08T07:18:15.971Z,77.95
2023-03-08T07:20:44.455Z,77.74
2023-03-08T07:23:12.925Z,77.98
2023-03-08T07:25:41.364Z,78.32
2023-03-08T07:28:10.787Z,78.43
2023-03-08T07:30:39.268Z,78.23
2023-03-08T07:33:09.053Z,77.74
2023-03-08T07:35:40.116Z,77.50
2023-03-08T07:38:08.786Z,78.07
2023-03-08T07:40:37.191Z,77.71
2023-03-08T07:43:06.494Z,77.50
2023-03-08T07:45:46.671Z,77.99
2023-03-08T07:48:16.591Z,77.72
2023-03-08T07:50:44.927Z,77.76
2023-03-08T07:53:13.354Z,78.04
2023-03-08T07:55:41.828Z,77.26
2023-03-08T07:58:10.318Z,76.74
2023-03-08T08:00:38.821Z,77.44
2023-03-08T08:03:07.275Z,77.46
2023-03-08T08:05:38.273Z,77.29
2023-03-08T08:08:06.939Z,77.13
2023-03-08T08:10:35.322Z,77.39
2023-03-08T08:13:06.623Z,77.14
2023-03-08T08:15:35.078Z,77.05
2023-03-08T08:18:04.373Z,76.84
2023-03-08T08:20:32.833Z,77.46
2023-03-08T08:23:02.776Z,76.92
2023-03-08T08:25:31.225Z,76.65
2023-03-08T08:27:59.592Z,76.51
2023-03-08T08:30:27.986Z,76.31
2023-03-08T08:32:56.352Z,75.39
2023-03-08T08:35:37.282Z,75.42
2023-03-08T08:38:12.131Z,75.01
2023-03-08T08:40:40.541Z,74.31
2023-03-08T08:43:08.847Z,74.43
2023-03-08T08:45:37.390Z,74.70
2023-03-08T08:48:06.055Z,75.25
2023-03-08T08:50:34.560Z,74.95
2023-03-08T08:53:03.026Z,75.13
2023-03-08T08:55:32.938Z,75.65
2023-03-08T08:58:01.469Z,74.34
2023-03-08T09:00:30.276Z,74.95
2023-03-08T09:02:58.594Z,74.63
2023-03-08T09:05:27.376Z,74.62
2023-03-08T09:07:55.884Z,74.73
2023-03-08T09:10:24.323Z,75.26
2023-03-08T09:12:54.435Z,74.57
2023-03-08T09:15:23.868Z,74.96
2023-03-08T09:17:52.273Z,73.59
2023-03-08T09:20:23.330Z,74.00
2023-03-08T09:22:53.088Z,73.74
2023-03-08T09:25:24.171Z,73.23
2023-03-08T09:27:54.191Z,72.98
2023-03-08T09:30:22.855Z,71.82
2023-03-08T09:32:51.312Z,71.41
2023-03-08T09:35:19.893Z,71.20
2023-03-08T09:37:48.277Z,70.84
2023-03-08T09:40:21.576Z,70.88
2023-03-08T09:42:50.341Z,71.40
2023-03-08T09:45:26.055Z,70.99
2023-03-08T09:48:05.192Z,71.66
2023-03-08T09:50:43.958Z,71.14
2023-03-08T09:53:24.536Z,71.22
2023-03-08T09:55:57.420Z,71.22
2023-03-08T09:58:34.324Z,70.55
2023-03-08T10:01:16.527Z,70.35
2023-03-08T10:04:04.391Z,69.65
2023-03-08T10:06:37.022Z,68.86
2023-03-08T10:09:18.072Z,69.04
2023-03-08T10:11:53.416Z,68.28
2023-03-08T10:14:25.456Z,68.58
2023-03-08T10:16:59.811Z,67.87
2023-03-08T10:19:32.527Z,67.97
2023-03-08T10:22:09.915Z,67.81
2023-03-08T10:24:44.428Z,67.68
2023-03-08T10:27:19.265Z,67.59
2023-03-08T10:29:56.054Z,66.68
2023-03-08T10:32:27.358Z,67.14
2023-03-08T10:35:02.746Z,67.25
2023-03-08T10:37:33.014Z,67.37
2023-03-08T10:40:06.065Z,67.04
2023-03-08T10:42:36.460Z,67.27
2023-03-08T10:45:15.052Z,67.10
2023-03-08T10:47:55.968Z,66.91
2023-03-08T10:50:26.375Z,66.40
2023-03-08T10:52:55.118Z,66.22
2023-03-08T10:55:25.593Z,66.50
2023-03-08T10:57:55.438Z,66.93
2023-03-08T11:00:34.133Z,66.41
2023-03-08T11:03:14.551Z,66.35
2023-03-08T11:05:53.425Z,66.20
2023-03-08T11:08:25.076Z,66.30
2023-03-08T11:11:08.182Z,66.23
2023-03-08T11:13:38.847Z,66.26
2023-03-08T11:16:37.741Z,65.54
2023-03-08T11:19:27.580Z,65.85
2023-03-08T11:22:04.975Z,65.76
2023-03-08T11:24:50.334Z,65.81
2023-03-08T11:27:31.573Z,65.51
2023-03-08T11:30:17.462Z,65.67
2023-03-08T11:32:56.274Z,66.00
2023-03-08T11:35:32.483Z,65.89
2023-03-08T11:38:05.738Z,66.05
2023-03-08T11:40:49.103Z,66.22
2023-03-08T11:43:33.358Z,66.19
2023-03-08T11:46:07.960Z,66.52
2023-03-08T11:48:49.244Z,65.95
2023-03-08T11:51:26.232Z,66.27
2023-03-08T11:54:05.664Z,66.38
2023-03-08T11:56:44.025Z,66.04
2023-03-08T11:59:21.597Z,65.13
2023-03-08T12:01:54.248Z,65.09
2023-03-08T12:04:32.980Z,64.74
2023-03-08T12:07:07.985Z,64.86
2023-03-08T12:09:41.763Z,65.17
2023-03-08T12:12:16.032Z,64.98
2023-03-08T12:14:53.438Z,64.84
2023-03-08T12:17:27.732Z,64.46
2023-03-08T12:19:56.427Z,64.40
2023-03-08T12:22:39.533Z,64.93
2023-03-08T12:25:14.559Z,64.93
2023-03-08T12:27:47.308Z,65.03
2023-03-08T12:30:27.811Z,65.08
2023-03-08T12:32:58.583Z,64.67
2023-03-08T12:35:30.650Z,65.00
2023-03-08T12:38:04.453Z,64.83
2023-03-08T12:40:41.619Z,65.12
2023-03-08T12:43:13.490Z,65.56
2023-03-08T12:45:44.971Z,64.88
2023-03-08T12:48:24.150Z,65.30
2023-03-08T12:51:00.662Z,65.74
2023-03-08T12:53:40.755Z,65.67
2023-03-08T12:56:24.035Z,65.46
2023-03-08T12:58:55.327Z,66.27
2023-03-08T13:01:39.679Z,66.19
2023-03-08T13:04:40.466Z,66.29
2023-03-08T13:07:35.627Z,66.26
2023-03-08T13:10:23.814Z,66.04
2023-03-08T13:13:07.633Z,66.08
2023-03-08T13:15:37.060Z,65.79
2023-03-08T13:18:15.514Z,65.58
2023-03-08T13:21:08.831Z,66.21
2023-03-08T13:23:41.979Z,65.75
2023-03-08T13:26:49.384Z,65.47
2023-03-08T13:29:20.812Z,65.82
2023-03-08T13:31:50.867Z,65.94
2023-03-08T13:34:26.705Z,66.21
2023-03-08T13:36:55.911Z,66.02
2023-03-08T13:39:26.728Z,65.64
2023-03-08T13:42:07.994Z,65.50
2023-03-08T13:44:36.507Z,65.60
2023-03-08T13:47:23.850Z,65.63
2023-03-08T13:49:54.223Z,65.99
2023-03-08T13:52:25.848Z,65.74
2023-03-08T13:54:56.392Z,65.02
2023-03-08T13:57:28.709Z,64.71
2023-03-08T13:59:59.054Z,65.33
2023-03-08T14:02:29.200Z,65.38
2023-03-08T14:04:58.675Z,65.09
2023-03-08T14:07:29.283Z,65.55
2023-03-08T14:09:58.520Z,65.30
2023-03-08T14:12:30.768Z,65.24
2023-03-08T14:15:04.707Z,65.12
2023-03-08T14:17:36.539Z,64.52
2023-03-08T14:20:15.536Z,64.36
2023-03-08T14:22:49.064Z,64.21
2023-03-08T14:25:29.254Z,63.29
2023-03-08T14:27:59.922Z,63.40
2023-03-08T14:30:29.810Z,64.06
2023-03-08T14:33:02.184Z,63.79
2023-03-08T14:35:32.676Z,63.72
2023-03-08T14:38:02.023Z,63.45
2023-03-08T14:40:33.497Z,63.40
2023-03-08T14:43:05.820Z,64.02
2023-03-08T14:45:37.113Z,63.39
2023-03-08T14:48:24.053Z,63.16
2023-03-08T14:50:55.556Z,63.90
2023-03-08T14:53:31.338Z,64.17
2023-03-08T14:56:06.549Z,63.61
2023-03-08T14:58:40.870Z,63.46
2023-03-08T15:01:09.319Z,63.71
2023-03-08T15:03:37.719Z,63.69
2023-03-08T15:06:13.983Z,63.41
2023-03-08T15:08:42.437Z,63.58
2023-03-08T15:11:10.848Z,62.66
2023-03-08T15:13:41.054Z,62.97
2023-03-08T15:16:14.215Z,62.97
2023-03-08T15:18:42.919Z,62.78
2023-03-08T15:21:15.327Z,63.24
2023-03-08T15:23:44.671Z,63.37
2023-03-08T15:26:18.377Z,63.20
2023-03-08T15:28:48.228Z,63.26
2023-03-08T15:31:16.594Z,63.06
2023-03-08T15:33:45.046Z,63.19
2023-03-08T15:36:15.484Z,62.34
2023-03-08T15:38:44.519Z,62.93
2023-03-08T15:41:13.506Z,63.22
2023-03-08T15:43:42.102Z,63.48
2023-03-08T15:46:14.256Z,63.72
2023-03-08T15:48:42.833Z,63.99
2023-03-08T15:51:18.879Z,64.17
2023-03-08T15:53:49.208Z,64.06
2023-03-08T15:56:18.351Z,63.78
2023-03-08T15:58:46.676Z,64.19
2023-03-08T16:01:16.558Z,63.88
2023-03-08T16:03:44.989Z,63.76
2023-03-08T16:06:15.157Z,63.66
2023-03-08T16:08:43.658Z,63.74
2023-03-08T16:11:13.495Z,63.87
2023-03-08T16:13:42.077Z,63.98
2023-03-08T16:16:11.304Z,64.00
2023-03-08T16:18:41.611Z,64.13
2023-03-08T16:21:10.706Z,63.80
2023-03-08T16:23:41.767Z,63.61
2023-03-08T16:26:16.343Z,63.44
2023-03-08T16:28:47.558Z,63.59
2023-03-08T16:31:17.582Z,63.23
2023-03-08T16:33:47.409Z,63.19
2023-03-08T16:36:16.357Z,63.40
2023-03-08T16:38:44.725Z,63.38
2023-03-08T16:41:14.281Z,63.76
2023-03-08T16:43:47.337Z,63.71
2023-03-08T16:46:19.418Z,63.46
2023-03-08T16:48:50.606Z,63.88
2023-03-08T16:51:21.078Z,63.42
2023-03-08T16:53:50.305Z,63.83
2023-03-08T16:56:19.612Z,63.46
2023-03-08T16:58:48.106Z,63.34
2023-03-08T17:01:19.381Z,63.72
2023-03-08T17:03:49.515Z,63.95
2023-03-08T17:06:19.964Z,63.92
2023-03-08T17:08:48.840Z,63.87
2023-03-08T17:11:17.710Z,64.34
2023-03-08T17:13:51.076Z,64.39
2023-03-08T17:16:20.556Z,64.30
2023-03-08T17:18:51.676Z,64.80
2023-03-08T17:21:21.368Z,64.95
2023-03-08T17:23:50.415Z,65.47
2023-03-08T17:26:20.639Z,65.74
2023-03-08T17:28:51.088Z,65.75
2023-03-08T17:31:21.440Z,66.22
2023-03-08T17:33:51.670Z,65.86
2023-03-08T17:36:20.859Z,65.76
2023-03-08T17:38:49.389Z,65.85
2023-03-08T17:41:18.251Z,65.91
2023-03-08T17:43:46.717Z,66.66
2023-03-08T17:46:17.277Z,66.97
2023-03-08T17:48:46.409Z,67.15
2023-03-08T17:51:19.256Z,67.60
2023-03-08T17:53:49.058Z,67.66
2023-03-08T17:56:20.171Z,67.59
2023-03-08T17:58:49.164Z,67.31
2023-03-08T18:01:20.417Z,67.33
2023-03-08T18:03:49.949Z,67.71
2023-03-08T18:06:25.146Z,67.36
2023-03-08T18:08:54.098Z,68.25
2023-03-08T18:11:23.156Z,68.05
2023-03-08T18:13:51.705Z,67.79
2023-03-08T18:16:21.152Z,68.01
2023-03-08T18:18:50.391Z,68.27
2023-03-08T18:21:21.109Z,68.55
2023-03-08T18:23:49.804Z,68.70
2023-03-08T18:26:19.048Z,68.71
2023-03-08T18:28:48.142Z,68.71
2023-03-08T18:31:19.086Z,68.50
2023-03-08T18:33:47.637Z,68.83
2023-03-08T18:36:16.426Z,69.48
2023-03-08T18:38:46.240Z,69.33
2023-03-08T18:41:16.886Z,69.68
2023-03-08T18:43:46.967Z,69.83
2023-03-08T18:46:16.064Z,69.63
2023-03-08T18:48:48.252Z,70.21
2023-03-08T18:51:16.745Z,69.69
2023-03-08T18:53:46.516Z,69.94
2023-03-08T18:56:14.942Z,70.21
2023-03-08T18:58:43.265Z,69.85
2023-03-08T19:01:13.220Z,69.93
2023-03-08T19:03:42.614Z,69.70
2023-03-08T19:06:12.691Z,70.29
2023-03-08T19:08:42.569Z,70.57
2023-03-08T19:11:13.706Z,69.89
2023-03-08T19:13:44.163Z,70.30
2023-03-08T19:16:21.332Z,70.25
2023-03-08T19:18:51.423Z,69.71
2023-03-08T19:21:21.586Z,70.44
2023-03-08T19:23:50.491Z,70.68
2023-03-08T19:26:41.422Z,70.26
2023-03-08T19:29:12.810Z,70.96
2023-03-08T19:31:44.185Z,71.24
2023-03-08T19:34:14.501Z,71.13
2023-03-08T19:36:43.305Z,71.13
2023-03-08T19:39:15.907Z,71.25
2023-03-08T19:41:45.868Z,71.21
2023-03-08T19:44:14.436Z,70.54
2023-03-08T19:46:43.210Z,70.49
2023-03-08T19:49:15.196Z,70.94
2023-03-08T19:51:45.866Z,71.42
2023-03-08T19:54:15.706Z,71.04
2023-03-08T19:56:45.749Z,71.38
2023-03-08T19:59:14.898Z,70.92
2023-03-08T20:01:44.866Z,71.32
2023-03-08T20:04:14.142Z,70.99
2023-03-08T20:06:46.318Z,71.30
2023-03-08T20:09:21.777Z,71.04
2023-03-08T20:11:53.515Z,70.91
2023-03-08T20:14:22.334Z,70.75
2023-03-08T20:16:51.213Z,71.15
2023-03-08T20:19:19.879Z,70.85
2023-03-08T20:21:48.268Z,71.16
2023-03-08T20:24:18.433Z,71.43
2023-03-08T20:26:47.627Z,71.03
2023-03-08T20:29:17.759Z,70.89
2023-03-08T20:31:48.285Z,71.49
2023-03-08T20:34:17.139Z,70.93
2023-03-08T20:36:45.562Z,72.03
2023-03-08T20:39:13.965Z,72.36
2023-03-08T20:41:42.254Z,72.29
2023-03-08T20:44:12.157Z,71.96
2023-03-08T20:46:42.011Z,71.71
2023-03-08T20:49:12.599Z,72.14
2023-03-08T20:51:41.101Z,71.56
2023-03-08T20:54:10.131Z,71.33
2023-03-08T20:56:38.474Z,71.19
2023-03-08T20:59:06.911Z,71.84
2023-03-08T21:01:35.540Z,71.79
2023-03-08T21:04:06.463Z,71.35
2023-03-08T21:06:34.809Z,71.45
2023-03-08T21:09:03.170Z,72.04
2023-03-08T21:11:32.895Z,72.08
2023-03-08T21:14:01.443Z,71.98
2023-03-08T21:16:31.337Z,71.00
2023-03-08T21:19:01.714Z,71.71
2023-03-08T21:21:34.512Z,71.96
2023-03-08T21:24:04.876Z,72.10
2023-03-08T21:26:34.156Z,72.33
2023-03-08T21:29:04.978Z,72.79
2023-03-08T21:31:34.549Z,72.27
2023-03-08T21:34:03.962Z,72.89
2023-03-08T21:36:34.320Z,72.66
2023-03-08T21:39:03.534Z,73.51
2023-03-08T21:41:33.719Z,72.98
2023-03-08T21:44:03.932Z,72.56
2023-03-08T21:46:32.827Z,72.17
2023-03-08T21:49:07.958Z,72.21
2023-03-08T21:51:38.583Z,72.35
2023-03-08T21:54:07.341Z,72.34
2023-03-08T21:56:36.077Z,72.42
2023-03-08T21:59:04.835Z,71.94
2023-03-08T22:01:33.431Z,71.31
2023-03-08T22:04:03.750Z,72.29
2023-03-08T22:06:32.555Z,72.02
2023-03-08T22:09:02.640Z,72.38
2023-03-08T22:11:31.181Z,72.56
2023-03-08T22:14:01.510Z,72.52
2023-03-08T22:16:31.157Z,72.33
2023-03-08T22:19:01.920Z,72.75
2023-03-08T22:21:30.393Z,72.37
2023-03-08T22:24:00.399Z,72.24
2023-03-08T22:26:32.030Z,72.69
2023-03-08T22:29:00.780Z,73.13
2023-03-08T22:31:30.829Z,72.95
2023-03-08T22:33:59.572Z,73.97
2023-03-08T22:36:28.058Z,74.00
2023-03-08T22:38:56.568Z,73.88
2023-03-08T22:41:31.458Z,74.01
2023-03-08T22:44:02.876Z,75.03
2023-03-08T22:46:31.560Z,74.85
2023-03-08T22:49:04.773Z,74.17
2023-03-08T22:51:34.615Z,75.22
2023-03-08T22:54:05.804Z,75.52
2023-03-08T22:56:36.272Z,74.96
2023-03-08T22:59:05.096Z,75.50
2023-03-08T23:01:35.253Z,75.72
2023-03-08T23:04:06.114Z,75.27
2023-03-08T23:06:35.473Z,76.47
2023-03-08T23:09:07.377Z,76.60
2023-03-08T23:11:38.605Z,77.38
2023-03-08T23:14:08.274Z,77.44
2023-03-08T23:16:37.522Z,77.38
2023-03-08T23:19:06.068Z,78.47
2023-03-08T23:21:37.904Z,78.13
2023-03-08T23:24:07.181Z,78.02
2023-03-08T23:26:37.493Z,78.56
2023-03-08T23:29:07.039Z,79.10
2023-03-08T23:31:37.838Z,79.09
2023-03-08T23:34:07.368Z,78.69
2023-03-08T23:36:36.138Z,78.63
2023-03-08T23:39:05.032Z,78.83
2023-03-08T23:41:34.109Z,78.94
2023-03-08T23:44:04.544Z,79.62
2023-03-08T23:46:33.558Z,79.79
2023-03-08T23:49:02.337Z,79.46
2023-03-08T23:51:32.242Z,79.07
2023-03-08T23:54:02.244Z,79.96
2023-03-08T23:56:37.876Z,79.79
2023-03-08T23:59:11.867Z,79.47
